This is the latest recevied weather packets stored in our database for station/object S56OA-13. If no packets are shown the sender has not sent any weather packets the latest 10 day(s).
| Time | Temp. | Humidity | Pressure | Rain* | Wind** | Luminosity | Snow |
|---|---|---|---|---|---|---|---|
| 1788270598 | 36.67° C | 42% | 941.6 hPa | - | - | - | - |
| 1788266996 | 34.44° C | 42% | 933.5 hPa | - | - | - | - |
| 1788265184 | 33.89° C | 42% | 930.7 hPa | - | - | - | - |
| 1788263360 | 32.22° C | 42% | 923.7 hPa | - | - | - | - |
| 1788261559 | 31.67° C | 42% | 923.3 hPa | - | - | - | - |
| 1788259757 | 31.11° C | 42% | 919.5 hPa | - | - | - | - |
| 1788257956 | 31.11° C | 41% | 915.8 hPa | - | - | - | - |
| 1788256155 | 30.56° C | 40% | 914.4 hPa | - | - | - | - |
| 1788254354 | 28.33° C | 41% | 905.2 hPa | - | - | - | - |
| 1788252553 | 27.22° C | 42% | 902.2 hPa | - | - | - | - |
| 1788250751 | 26.67° C | 41% | 899.8 hPa | - | - | - | - |
| 1788248950 | 25° C | 42% | 895 hPa | - | - | - | - |
| 1788245348 | 21.67° C | 42% | 882.9 hPa | - | - | - | - |
| 1788243547 | 20.56° C | 41% | 879.1 hPa | - | - | - | - |
| 1788241746 | 18.89° C | 42% | 873.6 hPa | - | - | - | - |
| 1788239944 | 17.22° C | 42% | 868.1 hPa | - | - | - | - |
| 1788238143 | 17.22° C | 42% | 867.9 hPa | - | - | - | - |
| 1788236341 | 16.67° C | 43% | 866.7 hPa | - | - | - | - |
| 1788234540 | 16.67° C | 43% | 866.9 hPa | - | - | - | - |
| 1788232739 | 16.67° C | 43% | 867.8 hPa | - | - | - | - |
| 1788230937 | 17.22° C | 43% | 868.7 hPa | - | - | - | - |
| 1788229136 | 17.22° C | 42% | 868.9 hPa | - | - | - | - |
| 1788227335 | 17.22° C | 43% | 869.5 hPa | - | - | - | - |
| 1788225533 | 17.22° C | 43% | 868.4 hPa | - | - | - | - |
| 1788223732 | 17.22° C | 43% | 868.9 hPa | - | - | - | - |
* Rain since midnight (hover to see other rain measurements)
** Current wind speed in m/s (hover to see current wind gust speed)